Historique des mesures à Cassis (13260), France
Quotidien Résumé Aout 6, 2017 Unités:  Métrique    US   Métrique/US
« Précédent (Jour)
Suivant (Jour) »
Quotidien Hebdomadaire Mensuel Annuel Période au choix
  Maximum: Minimum: Moyenne:
Température: TemperatureC °C 23.8 °C 27.4 °C
Point de rosée: DewpointC °C 8.8 °C 15 °C
Humidité: Humidity % 25 % 46 %
Vitesse du vent: 0 km/h 0 km/h 21.6 km/h
Rafales: 0 km/h - -
Vent:- - SSW
Pression: PressurehPa hPa 1007.3 hPa -
Précipitations: 1.0 mm    
Historical Graphs
 
 
Mesures pour : Aout 6, 2017
Heure Temperature Point de rosée Pression Vent Vitesse du vent Rafales Humidité Pluie (par heure) Conditions
TemperatureC °C DewpointC °C PressurehPa hPa Calm     Humidity % HourlyPrecipMM mm SoftwareType W/m2
00:11 31.7 °C 18.9 °C 1007.3 hPa Calm     47 % 0.0 mm open2300-1.11 W/m2
01:11 31.6 °C 18.9 °C 1008.4 hPa Calm   6.9 km/h 47 % 0.0 mm open2300-1.11 W/m2
02:11 28.8 °C 19.1 °C 1008.0 hPa North 6.4 km/h 14 km/h 56 % 0.0 mm open2300-1.11 W/m2
03:11 26.8 °C 19.2 °C 1007.3 hPa North 8.9 km/h 14.5 km/h 63 % 0.5 mm open2300-1.11 W/m2
04:11 27.3 °C 18.9 °C 1007.7 hPa NNW 46.3 km/h 60.8 km/h 60 % 0.0 mm open2300-1.11 W/m2
05:11 27.6 °C 17.7 °C 1007.7 hPa Calm   2.3 km/h 55 % 0.0 mm open2300-1.11 W/m2
06:11 25.8 °C 17.5 °C 1008.0 hPa WNW 20.3 km/h 20.3 km/h 60 % 0.0 mm open2300-1.11 W/m2
07:11 26.5 °C 16.7 °C 1009.0 hPa NW 27.7 km/h 53.9 km/h 55 % 0.0 mm open2300-1.11 W/m2
08:11 25.8 °C 15.8 °C 1009.7 hPa NNW 20.3 km/h 21.6 km/h 54 % 0.0 mm open2300-1.11 W/m2
09:11 26.0 °C 16.2 °C 1011.4 hPa NE 9.8 km/h 11.6 km/h 55 % 0.0 mm open2300-1.11 W/m2
10:11 23.8 °C 17.8 °C 1011.7 hPa NW 38.3 km/h 38.3 km/h 69 % 0.5 mm open2300-1.11 W/m2
11:11 23.9 °C 17.4 °C 1010.7 hPa WNW 10.9 km/h 10.9 km/h 67 % 0.0 mm open2300-1.11 W/m2
13:11 29.4 °C 18.8 °C 1010.0 hPa WNW 42.2 km/h 42.2 km/h 53 % 0.0 mm open2300-1.11 W/m2
15:11 31.0 °C 16.6 °C 1009.4 hPa WNW 50.5 km/h 50.5 km/h 42 % 0.0 mm open2300-1.11 W/m2
16:11 31.8 °C 16.6 °C 1009.0 hPa West 31.4 km/h 44.6 km/h 40 % 0.0 mm open2300-1.11 W/m2
17:11 32.4 °C 14.4 °C 1009.0 hPa NNW 54.4 km/h 54.4 km/h 34 % 0.0 mm open2300-1.11 W/m2
18:11 32.3 °C 12.6 °C 1008.7 hPa North 34.1 km/h 34.1 km/h 30 % 0.0 mm open2300-1.11 W/m2
19:11 31.8 °C 10.3 °C 1008.7 hPa NNE 33.6 km/h 41.2 km/h 27 % 0.0 mm open2300-1.11 W/m2
20:11 31.4 °C 8.8 °C 1008.7 hPa North 12.2 km/h 17.4 km/h 25 % 0.0 mm open2300-1.11 W/m2
21:11 29.4 °C 11.4 °C 1009.0 hPa NW 20.3 km/h 20.3 km/h 33 % 0.0 mm open2300-1.11 W/m2
22:11 27.5 °C 11.4 °C 1009.4 hPa North 13.2 km/h 17.9 km/h 37 % 0.0 mm open2300-1.11 W/m2
23:11 26.5 °C 11.0 °C 1009.7 hPa NNW 14.5 km/h 38.8 km/h 38 % 0.0 mm open2300-1.11 W/m2
Observations météo à CASSIS
WU-History script by Weather Underground - 1 mb